sensor_id;sensor_type;location;lat;lon;timestamp;pressure;altitude;pressure_sealevel;temperature;humidity
8069;BME280;4077;43.702;24.896;2023-05-16T00:02:14;99111.09;;;15.57;100.00
8069;BME280;4077;43.702;24.896;2023-05-16T00:04:40;99099.06;;;15.53;100.00
8069;BME280;4077;43.702;24.896;2023-05-16T00:07:05;99099.97;;;15.49;100.00
8069;BME280;4077;43.702;24.896;2023-05-16T00:09:31;99094.81;;;15.46;100.00
8069;BME280;4077;43.702;24.896;2023-05-16T00:11:56;99086.28;;;15.38;100.00
8069;BME280;4077;43.702;24.896;2023-05-16T00:14:23;99098.44;;;15.34;100.00
8069;BME280;4077;43.702;24.896;2023-05-16T00:16:51;99091.59;;;15.28;100.00
8069;BME280;4077;43.702;24.896;2023-05-16T00:19:17;99091.50;;;15.35;100.00
8069;BME280;4077;43.702;24.896;2023-05-16T00:21:42;99096.63;;;15.41;100.00
8069;BME280;4077;43.702;24.896;2023-05-16T00:24:09;99101.81;;;15.41;100.00
8069;BME280;4077;43.702;24.896;2023-05-16T00:26:34;99108.66;;;15.48;100.00
8069;BME280;4077;43.702;24.896;2023-05-16T00:29:00;99100.91;;;15.43;100.00
8069;BME280;4077;43.702;24.896;2023-05-16T00:31:26;99104.31;;;15.48;100.00
8069;BME280;4077;43.702;24.896;2023-05-16T00:33:52;99106.03;;;15.49;100.00
8069;BME280;4077;43.702;24.896;2023-05-16T00:36:19;99096.47;;;15.50;100.00
8069;BME280;4077;43.702;24.896;2023-05-16T00:38:44;99092.28;;;15.41;100.00
8069;BME280;4077;43.702;24.896;2023-05-16T00:41:10;99086.13;;;15.47;100.00
8069;BME280;4077;43.702;24.896;2023-05-16T00:43:36;99082.75;;;15.40;100.00
8069;BME280;4077;43.702;24.896;2023-05-16T00:46:01;99093.13;;;15.42;100.00
8069;BME280;4077;43.702;24.896;2023-05-16T00:48:27;99104.41;;;15.42;100.00
8069;BME280;4077;43.702;24.896;2023-05-16T00:50:53;99120.78;;;15.49;100.00
8069;BME280;4077;43.702;24.896;2023-05-16T00:53:18;99124.25;;;15.48;100.00
8069;BME280;4077;43.702;24.896;2023-05-16T00:55:44;99125.97;;;15.49;100.00
8069;BME280;4077;43.702;24.896;2023-05-16T00:58:11;99116.50;;;15.46;100.00
8069;BME280;4077;43.702;24.896;2023-05-16T01:00:37;99107.78;;;15.47;100.00
8069;BME280;4077;43.702;24.896;2023-05-16T01:03:06;99106.84;;;15.53;100.00
8069;BME280;4077;43.702;24.896;2023-05-16T01:05:32;99101.75;;;15.44;100.00
8069;BME280;4077;43.702;24.896;2023-05-16T01:07:57;99088.97;;;15.30;100.00
8069;BME280;4077;43.702;24.896;2023-05-16T01:10:23;99088.03;;;15.36;100.00
8069;BME280;4077;43.702;24.896;2023-05-16T01:16:09;99062.19;;;15.23;100.00
8069;BME280;4077;43.702;24.896;2023-05-16T01:18:56;99074.34;;;15.24;100.00
8069;BME280;4077;43.702;24.896;2023-05-16T01:21:41;99077.81;;;15.22;100.00
8069;BME280;4077;43.702;24.896;2023-05-16T01:24:22;99079.69;;;15.12;100.00
8069;BME280;4077;43.702;24.896;2023-05-16T01:26:51;99080.81;;;14.93;100.00
8069;BME280;4077;43.702;24.896;2023-05-16T01:29:18;99075.66;;;14.88;100.00
8069;BME280;4077;43.702;24.896;2023-05-16T01:31:43;99079.91;;;14.97;100.00
8069;BME280;4077;43.702;24.896;2023-05-16T01:34:09;99084.97;;;15.06;100.00
8069;BME280;4077;43.702;24.896;2023-05-16T01:36:52;99091.09;;;15.00;100.00
8069;BME280;4077;43.702;24.896;2023-05-16T01:39:31;99091.00;;;15.08;100.00
8069;BME280;4077;43.702;24.896;2023-05-16T01:44:43;99085.94;;;14.96;100.00
8069;BME280;4077;43.702;24.896;2023-05-16T01:47:14;99083.25;;;15.05;100.00
8069;BME280;4077;43.702;24.896;2023-05-16T01:49:57;99077.19;;;15.06;100.00
8069;BME280;4077;43.702;24.896;2023-05-16T01:52:37;99071.09;;;15.07;100.00
8069;BME280;4077;43.702;24.896;2023-05-16T01:55:09;99073.69;;;15.07;100.00
8069;BME280;4077;43.702;24.896;2023-05-16T01:57:35;99073.78;;;14.99;100.00
8069;BME280;4077;43.702;24.896;2023-05-16T02:00:01;99067.75;;;14.99;100.00
8069;BME280;4077;43.702;24.896;2023-05-16T02:02:27;99066.03;;;14.95;100.00
8069;BME280;4077;43.702;24.896;2023-05-16T02:04:52;99064.31;;;14.94;100.00
8069;BME280;4077;43.702;24.896;2023-05-16T02:07:18;99053.06;;;14.95;100.00
8069;BME280;4077;43.702;24.896;2023-05-16T02:09:44;99057.47;;;14.90;100.00
8069;BME280;4077;43.702;24.896;2023-05-16T02:12:09;99059.28;;;14.82;100.00
8069;BME280;4077;43.702;24.896;2023-05-16T02:14:34;99068.00;;;14.77;100.00
8069;BME280;4077;43.702;24.896;2023-05-16T02:17:00;99071.44;;;14.80;100.00
8069;BME280;4077;43.702;24.896;2023-05-16T02:19:25;99063.69;;;14.76;100.00
8069;BME280;4077;43.702;24.896;2023-05-16T02:21:51;99064.69;;;14.66;100.00
8069;BME280;4077;43.702;24.896;2023-05-16T02:24:16;99063.09;;;14.53;100.00
8069;BME280;4077;43.702;24.896;2023-05-16T02:26:42;99054.44;;;14.53;100.00
8069;BME280;4077;43.702;24.896;2023-05-16T02:29:08;99053.56;;;14.54;100.00
8069;BME280;4077;43.702;24.896;2023-05-16T02:31:34;99045.03;;;14.42;100.00
8069;BME280;4077;43.702;24.896;2023-05-16T02:33:59;99047.63;;;14.41;100.00
8069;BME280;4077;43.702;24.896;2023-05-16T02:36:25;99045.88;;;14.43;100.00
8069;BME280;4077;43.702;24.896;2023-05-16T02:38:51;99035.41;;;14.52;100.00
8069;BME280;4077;43.702;24.896;2023-05-16T02:41:17;99044.03;;;14.54;100.00
8069;BME280;4077;43.702;24.896;2023-05-16T02:43:42;99039.78;;;14.47;100.00
8069;BME280;4077;43.702;24.896;2023-05-16T02:46:21;99037.97;;;14.57;100.00
8069;BME280;4077;43.702;24.896;2023-05-16T02:48:48;99052.75;;;14.50;100.00
8069;BME280;4077;43.702;24.896;2023-05-16T02:51:13;99044.06;;;14.53;100.00
8069;BME280;4077;43.702;24.896;2023-05-16T02:53:38;99040.66;;;14.46;100.00
8069;BME280;4077;43.702;24.896;2023-05-16T02:56:04;99047.50;;;14.53;100.00
8069;BME280;4077;43.702;24.896;2023-05-16T02:58:31;99042.38;;;14.50;100.00
8069;BME280;4077;43.702;24.896;2023-05-16T03:00:57;99044.97;;;14.47;100.00
8069;BME280;4077;43.702;24.896;2023-05-16T03:03:23;99047.59;;;14.47;100.00
8069;BME280;4077;43.702;24.896;2023-05-16T03:05:49;99056.25;;;14.44;100.00
8069;BME280;4077;43.702;24.896;2023-05-16T03:08:14;99057.13;;;14.46;100.00
8069;BME280;4077;43.702;24.896;2023-05-16T03:10:40;99056.28;;;14.43;100.00
8069;BME280;4077;43.702;24.896;2023-05-16T03:13:05;99052.84;;;14.38;100.00
8069;BME280;4077;43.702;24.896;2023-05-16T03:15:31;99055.50;;;14.35;100.00
8069;BME280;4077;43.702;24.896;2023-05-16T03:17:56;99065.88;;;14.33;100.00
8069;BME280;4077;43.702;24.896;2023-05-16T03:20:21;99068.47;;;14.35;100.00
8069;BME280;4077;43.702;24.896;2023-05-16T03:22:47;99073.69;;;14.35;100.00
8069;BME280;4077;43.702;24.896;2023-05-16T03:25:12;99062.53;;;14.23;100.00
8069;BME280;4077;43.702;24.896;2023-05-16T03:27:38;99072.16;;;14.12;100.00
8069;BME280;4077;43.702;24.896;2023-05-16T03:30:04;99067.78;;;14.17;100.00
8069;BME280;4077;43.702;24.896;2023-05-16T03:32:30;99059.25;;;14.08;100.00
8069;BME280;4077;43.702;24.896;2023-05-16T03:34:55;99066.09;;;14.15;100.00
8069;BME280;4077;43.702;24.896;2023-05-16T03:37:21;99068.59;;;14.22;100.00
8069;BME280;4077;43.702;24.896;2023-05-16T03:39:46;99066.03;;;14.19;100.00
8069;BME280;4077;43.702;24.896;2023-05-16T03:42:12;99064.16;;;14.32;100.00
8069;BME280;4077;43.702;24.896;2023-05-16T03:44:37;99063.25;;;14.38;100.00
8069;BME280;4077;43.702;24.896;2023-05-16T03:47:03;99064.94;;;14.42;100.00
8069;BME280;4077;43.702;24.896;2023-05-16T03:49:28;99058.16;;;14.29;100.00
8069;BME280;4077;43.702;24.896;2023-05-16T03:51:54;99066.72;;;14.34;100.00
8069;BME280;4077;43.702;24.896;2023-05-16T03:54:20;99047.72;;;14.35;100.00
8069;BME280;4077;43.702;24.896;2023-05-16T03:56:46;99058.22;;;14.22;100.00
8069;BME280;4077;43.702;24.896;2023-05-16T03:59:11;99063.34;;;14.29;100.00
8069;BME280;4077;43.702;24.896;2023-05-16T04:01:37;99064.16;;;14.35;100.00
8069;BME280;4077;43.702;24.896;2023-05-16T04:04:03;99070.19;;;14.36;100.00
8069;BME280;4077;43.702;24.896;2023-05-16T04:06:28;99074.56;;;14.31;100.00
8069;BME280;4077;43.702;24.896;2023-05-16T04:08:54;99066.78;;;14.31;100.00
8069;BME280;4077;43.702;24.896;2023-05-16T04:11:20;99065.97;;;14.26;100.00
8069;BME280;4077;43.702;24.896;2023-05-16T04:13:46;99066.78;;;14.31;100.00
8069;BME280;4077;43.702;24.896;2023-05-16T04:16:11;99061.63;;;14.28;100.00
8069;BME280;4077;43.702;24.896;2023-05-16T04:18:37;99062.38;;;14.37;100.00
8069;BME280;4077;43.702;24.896;2023-05-16T04:21:02;99072.72;;;14.40;100.00
8069;BME280;4077;43.702;24.896;2023-05-16T04:23:28;99073.63;;;14.38;100.00
8069;BME280;4077;43.702;24.896;2023-05-16T04:25:54;99078.75;;;14.47;100.00
8069;BME280;4077;43.702;24.896;2023-05-16T04:28:21;99075.19;;;14.54;100.00
8069;BME280;4077;43.702;24.896;2023-05-16T04:30:47;99076.09;;;14.53;100.00
8069;BME280;4077;43.702;24.896;2023-05-16T04:33:13;99076.03;;;14.58;100.00
8069;BME280;4077;43.702;24.896;2023-05-16T04:35:38;99082.03;;;14.61;100.00
8069;BME280;4077;43.702;24.896;2023-05-16T04:38:04;99063.09;;;14.53;100.00
8069;BME280;4077;43.702;24.896;2023-05-16T04:40:29;99078.59;;;14.62;100.00
8069;BME280;4077;43.702;24.896;2023-05-16T04:42:55;99079.38;;;14.67;100.00
8069;BME280;4077;43.702;24.896;2023-05-16T04:45:20;99073.34;;;14.65;100.00
8069;BME280;4077;43.702;24.896;2023-05-16T04:47:46;99088.03;;;14.69;100.00
8069;BME280;4077;43.702;24.896;2023-05-16T04:50:12;99083.00;;;14.56;100.00
8069;BME280;4077;43.702;24.896;2023-05-16T04:52:39;99075.25;;;14.51;100.00
8069;BME280;4077;43.702;24.896;2023-05-16T04:55:05;99087.22;;;14.64;100.00
8069;BME280;4077;43.702;24.896;2023-05-16T04:57:30;99106.16;;;14.75;100.00
8069;BME280;4077;43.702;24.896;2023-05-16T04:59:56;99105.25;;;14.78;100.00
8069;BME280;4077;43.702;24.896;2023-05-16T05:02:21;99106.06;;;14.82;100.00
8069;BME280;4077;43.702;24.896;2023-05-16T05:04:46;99114.66;;;14.90;100.00
8069;BME280;4077;43.702;24.896;2023-05-16T05:07:12;99107.69;;;14.92;100.00
8069;BME280;4077;43.702;24.896;2023-05-16T05:09:38;99098.25;;;14.82;100.00
8069;BME280;4077;43.702;24.896;2023-05-16T05:12:04;99093.03;;;14.86;100.00
8069;BME280;4077;43.702;24.896;2023-05-16T05:14:30;99093.84;;;14.90;100.00
8069;BME280;4077;43.702;24.896;2023-05-16T05:16:55;99100.03;;;14.80;100.00
8069;BME280;4077;43.702;24.896;2023-05-16T05:19:21;99091.31;;;14.82;100.00
8069;BME280;4077;43.702;24.896;2023-05-16T05:21:46;99095.63;;;14.85;100.00
8069;BME280;4077;43.702;24.896;2023-05-16T05:24:12;99098.88;;;15.02;100.00
8069;BME280;4077;43.702;24.896;2023-05-16T05:26:37;99106.66;;;15.02;100.00
8069;BME280;4077;43.702;24.896;2023-05-16T05:29:02;99102.28;;;15.07;100.00
8069;BME280;4077;43.702;24.896;2023-05-16T05:31:28;99105.69;;;15.12;100.00
8069;BME280;4077;43.702;24.896;2023-05-16T05:33:53;99097.78;;;15.20;100.00
8069;BME280;4077;43.702;24.896;2023-05-16T05:36:20;99092.47;;;15.27;100.00
8069;BME280;4077;43.702;24.896;2023-05-16T05:38:46;99092.47;;;15.27;100.00
8069;BME280;4077;43.702;24.896;2023-05-16T05:41:11;99084.66;;;15.27;100.00
8069;BME280;4077;43.702;24.896;2023-05-16T05:43:37;99086.47;;;15.24;100.00
8069;BME280;4077;43.702;24.896;2023-05-16T05:46:03;99084.72;;;15.24;100.00
8069;BME280;4077;43.702;24.896;2023-05-16T05:48:28;99082.06;;;15.27;100.00
8069;BME280;4077;43.702;24.896;2023-05-16T05:50:54;99087.91;;;15.45;100.00
8069;BME280;4077;43.702;24.896;2023-05-16T05:53:20;99086.00;;;15.54;100.00
8069;BME280;4077;43.702;24.896;2023-05-16T05:55:46;99078.13;;;15.60;100.00
8069;BME280;4077;43.702;24.896;2023-05-16T05:58:11;99079.84;;;15.65;100.00
8069;BME280;4077;43.702;24.896;2023-05-16T06:00:37;99073.84;;;15.58;100.00
8069;BME280;4077;43.702;24.896;2023-05-16T06:03:02;99071.13;;;15.64;100.00
8069;BME280;4077;43.702;24.896;2023-05-16T06:05:28;99069.38;;;15.68;100.00
8069;BME280;4077;43.702;24.896;2023-05-16T06:07:54;99066.81;;;15.63;100.00
8069;BME280;4077;43.702;24.896;2023-05-16T06:10:19;99083.94;;;15.79;100.00
8069;BME280;4077;43.702;24.896;2023-05-16T06:12:45;99100.09;;;16.00;100.00
8069;BME280;4077;43.702;24.896;2023-05-16T06:15:10;99105.13;;;16.09;100.00
8069;BME280;4077;43.702;24.896;2023-05-16T06:17:36;99120.78;;;16.07;100.00
8069;BME280;4077;43.702;24.896;2023-05-16T06:20:01;99121.56;;;16.11;100.00
8069;BME280;4077;43.702;24.896;2023-05-16T06:22:27;99115.38;;;16.18;100.00
8069;BME280;4077;43.702;24.896;2023-05-16T06:24:52;99125.84;;;16.15;100.00
8069;BME280;4077;43.702;24.896;2023-05-16T06:27:17;99129.97;;;16.28;100.00
8069;BME280;4077;43.702;24.896;2023-05-16T06:29:43;99129.97;;;16.28;100.00
8069;BME280;4077;43.702;24.896;2023-05-16T06:32:08;99137.81;;;16.25;100.00
8069;BME280;4077;43.702;24.896;2023-05-16T06:34:34;99131.78;;;16.23;100.00
8069;BME280;4077;43.702;24.896;2023-05-16T06:36:59;99133.66;;;16.15;100.00
8069;BME280;4077;43.702;24.896;2023-05-16T06:39:27;99138.00;;;16.14;100.00
8069;BME280;4077;43.702;24.896;2023-05-16T06:41:53;99140.47;;;16.22;100.00
8069;BME280;4077;43.702;24.896;2023-05-16T06:44:18;99133.50;;;16.24;100.00
8069;BME280;4077;43.702;24.896;2023-05-16T06:46:44;99129.78;;;16.37;100.00
8069;BME280;4077;43.702;24.896;2023-05-16T06:49:09;99134.91;;;16.44;100.00
8069;BME280;4077;43.702;24.896;2023-05-16T06:51:35;99141.59;;;16.57;100.00
8069;BME280;4077;43.702;24.896;2023-05-16T06:54:00;99143.13;;;16.67;100.00
8069;BME280;4077;43.702;24.896;2023-05-16T06:56:26;99124.69;;;16.79;100.00
8069;BME280;4077;43.702;24.896;2023-05-16T06:58:53;99128.00;;;16.89;100.00
8069;BME280;4077;43.702;24.896;2023-05-16T07:01:18;99126.06;;;16.99;100.00
8069;BME280;4077;43.702;24.896;2023-05-16T07:03:43;99133.78;;;17.02;100.00
8069;BME280;4077;43.702;24.896;2023-05-16T07:06:09;99121.28;;;17.19;100.00
8069;BME280;4077;43.702;24.896;2023-05-16T07:08:34;99128.06;;;17.26;100.00
8069;BME280;4077;43.702;24.896;2023-05-16T07:11:01;99135.00;;;17.27;100.00
8069;BME280;4077;43.702;24.896;2023-05-16T07:13:26;99129.03;;;17.23;100.00
8069;BME280;4077;43.702;24.896;2023-05-16T07:15:52;99131.78;;;17.16;100.00
8069;BME280;4077;43.702;24.896;2023-05-16T07:18:18;99140.56;;;17.12;100.00
8069;BME280;4077;43.702;24.896;2023-05-16T07:20:43;99144.09;;;17.08;100.00
8069;BME280;4077;43.702;24.896;2023-05-16T07:23:10;99135.41;;;17.09;100.00
8069;BME280;4077;43.702;24.896;2023-05-16T07:25:35;99120.06;;;16.93;100.00
8069;BME280;4077;43.702;24.896;2023-05-16T07:28:01;99116.56;;;16.94;100.00
8069;BME280;4077;43.702;24.896;2023-05-16T07:30:27;99123.56;;;16.92;100.00
8069;BME280;4077;43.702;24.896;2023-05-16T07:32:52;99132.19;;;16.94;100.00
8069;BME280;4077;43.702;24.896;2023-05-16T07:35:18;99139.09;;;16.99;100.00
8069;BME280;4077;43.702;24.896;2023-05-16T07:37:43;99130.19;;;17.09;100.00
8069;BME280;4077;43.702;24.896;2023-05-16T07:40:09;99141.28;;;17.18;100.00
8069;BME280;4077;43.702;24.896;2023-05-16T07:42:35;99124.78;;;17.18;100.00
8069;BME280;4077;43.702;24.896;2023-05-16T07:45:01;99119.78;;;17.09;100.00
8069;BME280;4077;43.702;24.896;2023-05-16T07:47:27;99121.41;;;17.13;100.00
8069;BME280;4077;43.702;24.896;2023-05-16T07:49:52;99123.19;;;17.11;100.00
8069;BME280;4077;43.702;24.896;2023-05-16T07:52:18;99115.25;;;17.17;100.00
8069;BME280;4077;43.702;24.896;2023-05-16T07:54:45;99121.75;;;17.38;100.00
8069;BME280;4077;43.702;24.896;2023-05-16T07:57:13;99117.25;;;17.44;100.00
8069;BME280;4077;43.702;24.896;2023-05-16T07:59:39;99115.78;;;17.70;100.00
8069;BME280;4077;43.702;24.896;2023-05-16T08:02:04;99094.50;;;17.88;100.00
8069;BME280;4077;43.702;24.896;2023-05-16T08:04:30;99085.81;;;18.22;100.00
8069;BME280;4077;43.702;24.896;2023-05-16T08:06:55;99100.31;;;18.65;100.00
8069;BME280;4077;43.702;24.896;2023-05-16T08:09:21;99116.91;;;18.96;100.00
8069;BME280;4077;43.702;24.896;2023-05-16T08:11:46;99121.25;;;19.27;98.46
8069;BME280;4077;43.702;24.896;2023-05-16T08:14:12;99127.09;;;19.35;95.45
8069;BME280;4077;43.702;24.896;2023-05-16T08:16:37;99154.06;;;19.38;95.54
8069;BME280;4077;43.702;24.896;2023-05-16T08:19:02;99152.78;;;19.52;94.85
8069;BME280;4077;43.702;24.896;2023-05-16T08:21:28;99119.47;;;19.57;95.57
8069;BME280;4077;43.702;24.896;2023-05-16T08:23:54;99107.50;;;19.48;95.12
8069;BME280;4077;43.702;24.896;2023-05-16T08:26:20;99129.28;;;19.50;95.17
8069;BME280;4077;43.702;24.896;2023-05-16T08:28:46;99129.53;;;19.41;96.39
8069;BME280;4077;43.702;24.896;2023-05-16T08:31:11;99149.00;;;19.62;97.19
8069;BME280;4077;43.702;24.896;2023-05-16T08:33:37;99155.09;;;19.90;96.52
8069;BME280;4077;43.702;24.896;2023-05-16T08:36:02;99136.59;;;19.95;95.99
8069;BME280;4077;43.702;24.896;2023-05-16T08:38:28;99137.31;;;20.00;96.79
8069;BME280;4077;43.702;24.896;2023-05-16T08:40:53;99125.53;;;20.13;96.48
8069;BME280;4077;43.702;24.896;2023-05-16T08:43:20;99133.38;;;20.40;94.09
8069;BME280;4077;43.702;24.896;2023-05-16T08:45:46;99143.28;;;20.57;92.76
8069;BME280;4077;43.702;24.896;2023-05-16T08:48:13;99123.66;;;20.68;92.00
8069;BME280;4077;43.702;24.896;2023-05-16T08:50:40;99126.34;;;20.67;92.35
8069;BME280;4077;43.702;24.896;2023-05-16T08:53:08;99138.19;;;20.54;94.31
8069;BME280;4077;43.702;24.896;2023-05-16T08:55:35;99135.84;;;20.69;92.70
8069;BME280;4077;43.702;24.896;2023-05-16T08:58:00;99105.63;;;20.59;91.82
8069;BME280;4077;43.702;24.896;2023-05-16T09:00:27;99099.28;;;20.65;93.04
8069;BME280;4077;43.702;24.896;2023-05-16T09:02:52;99104.94;;;20.54;92.67
8069;BME280;4077;43.702;24.896;2023-05-16T09:05:18;99076.59;;;20.39;94.26
8069;BME280;4077;43.702;24.896;2023-05-16T09:07:44;99059.25;;;20.35;95.41
8069;BME280;4077;43.702;24.896;2023-05-16T09:10:11;99124.22;;;20.53;94.47
8069;BME280;4077;43.702;24.896;2023-05-16T09:12:38;99111.31;;;20.47;93.45
8069;BME280;4077;43.702;24.896;2023-05-16T09:15:05;99099.84;;;20.49;94.98
8069;BME280;4077;43.702;24.896;2023-05-16T09:17:46;99094.53;;;20.51;93.07
8069;BME280;4077;43.702;24.896;2023-05-16T09:20:18;99098.91;;;20.52;93.71
8069;BME280;4077;43.702;24.896;2023-05-16T09:22:58;99095.81;;;20.64;93.36
8069;BME280;4077;43.702;24.896;2023-05-16T09:25:29;99089.63;;;20.67;92.28
8069;BME280;4077;43.702;24.896;2023-05-16T09:27:55;99083.75;;;20.60;92.85
8069;BME280;4077;43.702;24.896;2023-05-16T09:30:32;99084.53;;;20.86;92.78
8069;BME280;4077;43.702;24.896;2023-05-16T09:32:58;99097.78;;;21.06;91.89
8069;BME280;4077;43.702;24.896;2023-05-16T09:35:23;99079.19;;;21.36;89.52
8069;BME280;4077;43.702;24.896;2023-05-16T09:37:50;99078.34;;;21.57;89.32
8069;BME280;4077;43.702;24.896;2023-05-16T09:40:22;99057.47;;;21.74;88.38
8069;BME280;4077;43.702;24.896;2023-05-16T09:43:03;99044.25;;;21.77;88.19
8069;BME280;4077;43.702;24.896;2023-05-16T09:45:30;99055.56;;;22.00;87.33
8069;BME280;4077;43.702;24.896;2023-05-16T09:48:14;99078.78;;;21.89;87.70
8069;BME280;4077;43.702;24.896;2023-05-16T09:50:46;99087.22;;;21.75;86.41
8069;BME280;4077;43.702;24.896;2023-05-16T09:53:12;99093.47;;;21.72;87.83
8069;BME280;4077;43.702;24.896;2023-05-16T09:55:38;99102.16;;;21.74;86.90
8069;BME280;4077;43.702;24.896;2023-05-16T09:58:03;99086.81;;;21.85;87.35
8069;BME280;4077;43.702;24.896;2023-05-16T10:00:30;99086.31;;;21.98;86.09
8069;BME280;4077;43.702;24.896;2023-05-16T10:02:57;99094.28;;;21.96;86.14
8069;BME280;4077;43.702;24.896;2023-05-16T10:05:26;99086.63;;;22.12;85.79
8069;BME280;4077;43.702;24.896;2023-05-16T10:07:56;99068.16;;;22.14;86.60
8069;BME280;4077;43.702;24.896;2023-05-16T10:10:22;99065.53;;;21.92;85.12
8069;BME280;4077;43.702;24.896;2023-05-16T10:12:50;99080.53;;;21.90;86.14
8069;BME280;4077;43.702;24.896;2023-05-16T10:15:16;99081.19;;;21.73;85.47
8069;BME280;4077;43.702;24.896;2023-05-16T10:17:42;99065.50;;;21.71;86.43
8069;BME280;4077;43.702;24.896;2023-05-16T10:20:10;99048.97;;;21.69;85.91
8069;BME280;4077;43.702;24.896;2023-05-16T10:22:41;99044.25;;;21.77;86.69
8069;BME280;4077;43.702;24.896;2023-05-16T10:27:35;99065.00;;;21.83;88.15
8069;BME280;4077;43.702;24.896;2023-05-16T10:30:02;99063.34;;;21.81;89.27
8069;BME280;4077;43.702;24.896;2023-05-16T10:32:29;99061.31;;;21.88;90.04
8069;BME280;4077;43.702;24.896;2023-05-16T10:34:56;99071.13;;;21.84;90.43
8069;BME280;4077;43.702;24.896;2023-05-16T10:37:23;99058.91;;;21.83;89.79
8069;BME280;4077;43.702;24.896;2023-05-16T10:39:50;99045.19;;;21.75;90.50
8069;BME280;4077;43.702;24.896;2023-05-16T10:42:16;99042.38;;;21.79;91.74
8069;BME280;4077;43.702;24.896;2023-05-16T10:44:42;99057.91;;;21.85;91.90
8069;BME280;4077;43.702;24.896;2023-05-16T10:47:08;99069.63;;;21.99;91.80
8069;BME280;4077;43.702;24.896;2023-05-16T10:49:33;99053.22;;;22.14;92.88
8069;BME280;4077;43.702;24.896;2023-05-16T10:52:09;99075.44;;;22.27;91.46
8069;BME280;4077;43.702;24.896;2023-05-16T10:54:56;99043.44;;;22.18;91.42
8069;BME280;4077;43.702;24.896;2023-05-16T10:57:22;99041.84;;;22.14;94.20
8069;BME280;4077;43.702;24.896;2023-05-16T10:59:49;99037.00;;;22.03;94.53
8069;BME280;4077;43.702;24.896;2023-05-16T11:02:31;99036.38;;;21.98;95.20
8069;BME280;4077;43.702;24.896;2023-05-16T11:05:00;99044.84;;;22.04;96.61
8069;BME280;4077;43.702;24.896;2023-05-16T11:07:34;99026.13;;;21.92;95.58
8069;BME280;4077;43.702;24.896;2023-05-16T11:10:14;99011.00;;;21.97;96.48
8069;BME280;4077;43.702;24.896;2023-05-16T11:12:49;99006.03;;;21.91;96.98
8069;BME280;4077;43.702;24.896;2023-05-16T11:15:19;99006.41;;;22.02;99.16
8069;BME280;4077;43.702;24.896;2023-05-16T11:17:45;98992.63;;;21.97;100.00
8069;BME280;4077;43.702;24.896;2023-05-16T11:20:29;98997.25;;;22.12;100.00
8069;BME280;4077;43.702;24.896;2023-05-16T11:25:41;98988.44;;;22.13;100.00
8069;BME280;4077;43.702;24.896;2023-05-16T11:28:07;98977.50;;;22.22;99.87
8069;BME280;4077;43.702;24.896;2023-05-16T11:30:34;98979.84;;;22.28;100.00
8069;BME280;4077;43.702;24.896;2023-05-16T11:33:00;98990.88;;;22.36;100.00
8069;BME280;4077;43.702;24.896;2023-05-16T11:35:25;98985.22;;;22.46;100.00
8069;BME280;4077;43.702;24.896;2023-05-16T11:37:51;98983.53;;;22.45;99.37
8069;BME280;4077;43.702;24.896;2023-05-16T11:40:17;98988.28;;;22.55;98.39
8069;BME280;4077;43.702;24.896;2023-05-16T11:42:45;98989.06;;;22.57;99.39
8069;BME280;4077;43.702;24.896;2023-05-16T11:45:15;98994.31;;;22.57;98.33
8069;BME280;4077;43.702;24.896;2023-05-16T11:47:42;98969.66;;;22.60;99.88
8069;BME280;4077;43.702;24.896;2023-05-16T11:50:13;98965.19;;;22.62;100.00
8069;BME280;4077;43.702;24.896;2023-05-16T11:52:41;98975.72;;;22.62;100.00
8069;BME280;4077;43.702;24.896;2023-05-16T11:55:08;98972.69;;;22.51;100.00
8069;BME280;4077;43.702;24.896;2023-05-16T11:57:36;98969.94;;;22.54;100.00
8069;BME280;4077;43.702;24.896;2023-05-16T12:00:23;98958.50;;;22.55;100.00
8069;BME280;4077;43.702;24.896;2023-05-16T12:02:51;98947.97;;;22.55;100.00
8069;BME280;4077;43.702;24.896;2023-05-16T12:05:18;98931.69;;;22.47;100.00
8069;BME280;4077;43.702;24.896;2023-05-16T12:07:45;98906.88;;;22.33;100.00
8069;BME280;4077;43.702;24.896;2023-05-16T12:10:12;98905.53;;;22.25;100.00
8069;BME280;4077;43.702;24.896;2023-05-16T12:12:41;98927.06;;;22.33;100.00
8069;BME280;4077;43.702;24.896;2023-05-16T12:15:08;98943.41;;;22.39;100.00
8069;BME280;4077;43.702;24.896;2023-05-16T12:17:35;98933.19;;;22.33;100.00
8069;BME280;4077;43.702;24.896;2023-05-16T12:20:01;98907.72;;;22.15;100.00
8069;BME280;4077;43.702;24.896;2023-05-16T12:22:30;98923.88;;;22.06;100.00
8069;BME280;4077;43.702;24.896;2023-05-16T12:24:58;98920.22;;;22.10;100.00
8069;BME280;4077;43.702;24.896;2023-05-16T12:27:25;98928.38;;;22.02;100.00
8069;BME280;4077;43.702;24.896;2023-05-16T12:29:51;98929.94;;;21.88;100.00
8069;BME280;4077;43.702;24.896;2023-05-16T12:32:20;98933.47;;;21.87;100.00
8069;BME280;4077;43.702;24.896;2023-05-16T12:34:49;98922.84;;;21.69;100.00
8069;BME280;4077;43.702;24.896;2023-05-16T12:37:16;98921.19;;;21.67;100.00
8069;BME280;4077;43.702;24.896;2023-05-16T12:39:42;98913.84;;;21.75;100.00
8069;BME280;4077;43.702;24.896;2023-05-16T12:42:07;98898.91;;;21.75;100.00
8069;BME280;4077;43.702;24.896;2023-05-16T12:44:34;98890.94;;;21.58;100.00
8069;BME280;4077;43.702;24.896;2023-05-16T12:47:01;98890.09;;;21.57;100.00
8069;BME280;4077;43.702;24.896;2023-05-16T12:49:26;98883.22;;;21.33;100.00
8069;BME280;4077;43.702;24.896;2023-05-16T12:51:54;98883.06;;;21.16;100.00
8069;BME280;4077;43.702;24.896;2023-05-16T12:54:20;98887.78;;;21.08;100.00
8069;BME280;4077;43.702;24.896;2023-05-16T12:56:49;98890.03;;;20.95;100.00
8069;BME280;4077;43.702;24.896;2023-05-16T12:59:15;98889.69;;;20.82;100.00
8069;BME280;4077;43.702;24.896;2023-05-16T13:01:41;98881.75;;;20.84;100.00
8069;BME280;4077;43.702;24.896;2023-05-16T13:04:07;98887.22;;;20.77;100.00
8069;BME280;4077;43.702;24.896;2023-05-16T13:06:33;98869.41;;;20.64;100.00
8069;BME280;4077;43.702;24.896;2023-05-16T13:08:58;98874.34;;;20.49;100.00
8069;BME280;4077;43.702;24.896;2023-05-16T13:11:24;98864.25;;;20.39;100.00
8069;BME280;4077;43.702;24.896;2023-05-16T13:13:50;98869.50;;;20.39;100.00